sensor_id;sensor_type;location;lat;lon;timestamp;pressure;altitude;pressure_sealevel;temperature;humidity
38780;BME280;29273;49.962;9.768;2023-06-10T00:02:20;99534.16;;;21.31;41.87
38780;BME280;29273;49.962;9.768;2023-06-10T00:04:46;99534.19;;;21.26;42.00
38780;BME280;29273;49.962;9.768;2023-06-10T00:07:12;99536.63;;;21.22;42.40
38780;BME280;29273;49.962;9.768;2023-06-10T00:09:38;99531.78;;;21.19;42.31
38780;BME280;29273;49.962;9.768;2023-06-10T00:12:07;99525.06;;;21.22;41.03
38780;BME280;29273;49.962;9.768;2023-06-10T00:14:39;99533.69;;;21.19;40.71
38780;BME280;29273;49.962;9.768;2023-06-10T00:17:06;99526.19;;;21.11;42.24
38780;BME280;29273;49.962;9.768;2023-06-10T00:19:38;99523.78;;;21.09;42.04
38780;BME280;29273;49.962;9.768;2023-06-10T00:22:07;99526.22;;;21.05;42.37
38780;BME280;29273;49.962;9.768;2023-06-10T00:24:33;99520.31;;;21.03;42.50
38780;BME280;29273;49.962;9.768;2023-06-10T00:26:59;99527.06;;;21.01;42.54
38780;BME280;29273;49.962;9.768;2023-06-10T00:29:24;99533.78;;;20.98;42.73
38780;BME280;29273;49.962;9.768;2023-06-10T00:31:50;99535.44;;;20.94;42.92
38780;BME280;29273;49.962;9.768;2023-06-10T00:34:18;99534.09;;;20.92;43.01
38780;BME280;29273;49.962;9.768;2023-06-10T00:36:44;99537.38;;;20.88;43.14
38780;BME280;29273;49.962;9.768;2023-06-10T00:39:10;99541.41;;;20.86;43.44
38780;BME280;29273;49.962;9.768;2023-06-10T00:41:36;99544.38;;;20.84;43.61
38780;BME280;29273;49.962;9.768;2023-06-10T00:44:02;99544.13;;;20.81;43.65
38780;BME280;29273;49.962;9.768;2023-06-10T00:46:27;99541.97;;;20.78;43.73
38780;BME280;29273;49.962;9.768;2023-06-10T00:48:54;99541.44;;;20.76;43.60
38780;BME280;29273;49.962;9.768;2023-06-10T00:51:20;99540.94;;;20.74;43.66
38780;BME280;29273;49.962;9.768;2023-06-10T00:53:47;99548.44;;;20.72;43.53
38780;BME280;29273;49.962;9.768;2023-06-10T00:56:13;99540.13;;;20.68;43.46
38780;BME280;29273;49.962;9.768;2023-06-10T00:58:39;99538.81;;;20.65;43.70
38780;BME280;29273;49.962;9.768;2023-06-10T01:01:05;99535.81;;;20.62;43.63
38780;BME280;29273;49.962;9.768;2023-06-10T01:03:31;99544.97;;;20.61;43.76
38780;BME280;29273;49.962;9.768;2023-06-10T01:06:02;99543.66;;;20.63;42.39
38780;BME280;29273;49.962;9.768;2023-06-10T01:08:33;99539.59;;;20.56;43.45
38780;BME280;29273;49.962;9.768;2023-06-10T01:11:02;99542.03;;;20.57;42.70
38780;BME280;29273;49.962;9.768;2023-06-10T01:13:30;99539.09;;;20.54;43.08
38780;BME280;29273;49.962;9.768;2023-06-10T01:15:57;99551.47;;;20.49;43.45
38780;BME280;29273;49.962;9.768;2023-06-10T01:18:23;99542.06;;;20.47;43.55
38780;BME280;29273;49.962;9.768;2023-06-10T01:20:49;99541.78;;;20.43;43.97
38780;BME280;29273;49.962;9.768;2023-06-10T01:23:15;99547.47;;;20.42;43.24
38780;BME280;29273;49.962;9.768;2023-06-10T01:25:46;99546.38;;;20.43;42.39
38780;BME280;29273;49.962;9.768;2023-06-10T01:28:19;99543.69;;;20.38;42.33
38780;BME280;29273;49.962;9.768;2023-06-10T01:31:06;99544.50;;;20.33;41.90
38780;BME280;29273;49.962;9.768;2023-06-10T01:33:35;99534.84;;;20.27;43.10
38780;BME280;29273;49.962;9.768;2023-06-10T01:36:02;99544.53;;;20.23;43.67
38780;BME280;29273;49.962;9.768;2023-06-10T01:38:32;99542.09;;;20.21;42.62
38780;BME280;29273;49.962;9.768;2023-06-10T01:40:58;99550.47;;;20.14;44.05
38780;BME280;29273;49.962;9.768;2023-06-10T01:43:25;99552.09;;;20.10;44.11
38780;BME280;29273;49.962;9.768;2023-06-10T01:45:51;99551.00;;;20.06;44.54
38780;BME280;29273;49.962;9.768;2023-06-10T01:48:16;99541.88;;;20.02;44.63
38780;BME280;29273;49.962;9.768;2023-06-10T01:50:42;99545.09;;;19.99;44.78
38780;BME280;29273;49.962;9.768;2023-06-10T01:53:09;99541.06;;;19.96;44.70
38780;BME280;29273;49.962;9.768;2023-06-10T01:55:35;99540.81;;;19.93;44.98
38780;BME280;29273;49.962;9.768;2023-06-10T01:58:00;99543.22;;;19.89;44.94
38780;BME280;29273;49.962;9.768;2023-06-10T02:00:26;99546.19;;;19.88;45.04
38780;BME280;29273;49.962;9.768;2023-06-10T02:02:51;99556.41;;;19.86;45.23
38780;BME280;29273;49.962;9.768;2023-06-10T02:05:17;99556.66;;;19.84;45.44
38780;BME280;29273;49.962;9.768;2023-06-10T02:07:42;99551.56;;;19.83;45.31
38780;BME280;29273;49.962;9.768;2023-06-10T02:10:08;99559.09;;;19.81;44.87
38780;BME280;29273;49.962;9.768;2023-06-10T02:12:33;99556.66;;;19.79;45.22
38780;BME280;29273;49.962;9.768;2023-06-10T02:14:59;99557.19;;;19.76;45.34
38780;BME280;29273;49.962;9.768;2023-06-10T02:17:25;99560.38;;;19.73;45.34
38780;BME280;29273;49.962;9.768;2023-06-10T02:19:50;99562.00;;;19.69;45.53
38780;BME280;29273;49.962;9.768;2023-06-10T02:22:20;99563.34;;;19.71;44.59
38780;BME280;29273;49.962;9.768;2023-06-10T02:24:45;99563.59;;;19.65;45.65
38780;BME280;29273;49.962;9.768;2023-06-10T02:27:11;99562.53;;;19.60;45.35
38780;BME280;29273;49.962;9.768;2023-06-10T02:29:36;99571.13;;;19.57;46.00
38780;BME280;29273;49.962;9.768;2023-06-10T02:32:03;99567.09;;;19.55;45.83
38780;BME280;29273;49.962;9.768;2023-06-10T02:34:29;99571.38;;;19.51;46.08
38780;BME280;29273;49.962;9.768;2023-06-10T02:36:55;99571.91;;;19.48;46.07
38780;BME280;29273;49.962;9.768;2023-06-10T02:39:21;99576.75;;;19.46;46.08
38780;BME280;29273;49.962;9.768;2023-06-10T02:41:48;99571.91;;;19.42;45.97
38780;BME280;29273;49.962;9.768;2023-06-10T02:44:15;99573.78;;;19.37;46.24
38780;BME280;29273;49.962;9.768;2023-06-10T02:46:41;99579.44;;;19.35;46.14
38780;BME280;29273;49.962;9.768;2023-06-10T02:49:06;99576.72;;;19.30;46.24
38780;BME280;29273;49.962;9.768;2023-06-10T02:51:32;99579.94;;;19.27;46.34
38780;BME280;29273;49.962;9.768;2023-06-10T02:54:01;99578.31;;;19.26;46.27
38780;BME280;29273;49.962;9.768;2023-06-10T02:56:26;99584.47;;;19.21;46.34
38780;BME280;29273;49.962;9.768;2023-06-10T02:58:54;99582.06;;;19.20;46.33
38780;BME280;29273;49.962;9.768;2023-06-10T03:01:21;99582.31;;;19.18;46.14
38780;BME280;29273;49.962;9.768;2023-06-10T03:03:59;99578.28;;;19.16;46.34
38780;BME280;29273;49.962;9.768;2023-06-10T03:06:25;99576.94;;;19.13;46.32
38780;BME280;29273;49.962;9.768;2023-06-10T03:08:55;99571.03;;;19.11;46.43
38780;BME280;29273;49.962;9.768;2023-06-10T03:11:21;99568.59;;;19.10;46.38
38780;BME280;29273;49.962;9.768;2023-06-10T03:13:47;99567.53;;;19.06;46.63
38780;BME280;29273;49.962;9.768;2023-06-10T03:16:15;99568.84;;;19.03;46.50
38780;BME280;29273;49.962;9.768;2023-06-10T03:18:42;99572.63;;;19.02;46.93
38780;BME280;29273;49.962;9.768;2023-06-10T03:21:07;99569.38;;;19.00;46.83
38780;BME280;29273;49.962;9.768;2023-06-10T03:23:34;99567.25;;;18.97;46.78
38780;BME280;29273;49.962;9.768;2023-06-10T03:26:00;99573.66;;;18.96;47.18
38780;BME280;29273;49.962;9.768;2023-06-10T03:28:26;99570.19;;;18.95;47.09
38780;BME280;29273;49.962;9.768;2023-06-10T03:30:52;99572.03;;;18.95;46.94
38780;BME280;29273;49.962;9.768;2023-06-10T03:33:18;99564.00;;;18.95;47.31
38780;BME280;29273;49.962;9.768;2023-06-10T03:35:44;99568.56;;;18.94;47.02
38780;BME280;29273;49.962;9.768;2023-06-10T03:38:11;99580.91;;;18.95;46.94
38780;BME280;29273;49.962;9.768;2023-06-10T03:40:37;99574.19;;;18.93;47.15
38780;BME280;29273;49.962;9.768;2023-06-10T03:43:03;99580.59;;;18.92;46.86
38780;BME280;29273;49.962;9.768;2023-06-10T03:45:30;99580.06;;;18.90;47.40
38780;BME280;29273;49.962;9.768;2023-06-10T03:47:56;99580.34;;;18.88;47.24
38780;BME280;29273;49.962;9.768;2023-06-10T03:50:26;99580.84;;;18.85;47.28
38780;BME280;29273;49.962;9.768;2023-06-10T03:52:52;99586.47;;;18.83;47.51
38780;BME280;29273;49.962;9.768;2023-06-10T03:55:21;99584.06;;;18.82;47.43
38780;BME280;29273;49.962;9.768;2023-06-10T03:57:49;99594.53;;;18.83;47.29
38780;BME280;29273;49.962;9.768;2023-06-10T04:00:16;99592.91;;;18.82;47.32
38780;BME280;29273;49.962;9.768;2023-06-10T04:02:43;99598.25;;;18.82;48.13
38780;BME280;29273;49.962;9.768;2023-06-10T04:05:16;99594.53;;;18.83;47.79
38780;BME280;29273;49.962;9.768;2023-06-10T04:07:42;99596.16;;;18.84;47.55
38780;BME280;29273;49.962;9.768;2023-06-10T04:10:10;99599.63;;;18.85;47.52
38780;BME280;29273;49.962;9.768;2023-06-10T04:12:37;99599.63;;;18.85;47.95
38780;BME280;29273;49.962;9.768;2023-06-10T04:15:04;99602.63;;;18.89;47.61
38780;BME280;29273;49.962;9.768;2023-06-10T04:17:30;99594.84;;;18.87;47.94
38780;BME280;29273;49.962;9.768;2023-06-10T04:19:56;99591.91;;;18.89;47.87
38780;BME280;29273;49.962;9.768;2023-06-10T04:22:21;99589.75;;;18.91;48.11
38780;BME280;29273;49.962;9.768;2023-06-10T04:24:48;99601.81;;;18.93;48.04
38780;BME280;29273;49.962;9.768;2023-06-10T04:27:14;99603.69;;;18.93;48.15
38780;BME280;29273;49.962;9.768;2023-06-10T04:29:39;99604.25;;;18.95;48.41
38780;BME280;29273;49.962;9.768;2023-06-10T04:32:06;99608.28;;;18.97;48.24
38780;BME280;29273;49.962;9.768;2023-06-10T04:34:36;99605.63;;;19.02;47.04
38780;BME280;29273;49.962;9.768;2023-06-10T04:37:04;99601.03;;;18.98;48.57
38780;BME280;29273;49.962;9.768;2023-06-10T04:39:30;99599.16;;;18.98;48.92
38780;BME280;29273;49.962;9.768;2023-06-10T04:41:56;99606.16;;;18.99;48.85
38780;BME280;29273;49.962;9.768;2023-06-10T04:44:22;99605.34;;;18.99;49.21
38780;BME280;29273;49.962;9.768;2023-06-10T04:46:48;99607.78;;;19.00;49.08
38780;BME280;29273;49.962;9.768;2023-06-10T04:49:14;99603.47;;;18.99;49.16
38780;BME280;29273;49.962;9.768;2023-06-10T04:51:40;99599.72;;;19.00;49.04
38780;BME280;29273;49.962;9.768;2023-06-10T04:54:07;99600.25;;;19.02;49.34
38780;BME280;29273;49.962;9.768;2023-06-10T04:56:32;99602.69;;;19.04;49.18
38780;BME280;29273;49.962;9.768;2023-06-10T04:58:59;99605.63;;;19.08;49.08
38780;BME280;29273;49.962;9.768;2023-06-10T05:01:24;99598.13;;;19.10;49.44
38780;BME280;29273;49.962;9.768;2023-06-10T05:03:50;99600.56;;;19.11;49.56
38780;BME280;29273;49.962;9.768;2023-06-10T05:06:15;99598.41;;;19.13;49.39
38780;BME280;29273;49.962;9.768;2023-06-10T05:08:41;99600.81;;;19.15;49.79
38780;BME280;29273;49.962;9.768;2023-06-10T05:11:06;99592.50;;;19.16;49.82
38780;BME280;29273;49.962;9.768;2023-06-10T05:13:32;99596.31;;;19.20;49.75
38780;BME280;29273;49.962;9.768;2023-06-10T05:15:57;99602.22;;;19.22;49.67
38780;BME280;29273;49.962;9.768;2023-06-10T05:18:23;99593.63;;;19.26;49.86
38780;BME280;29273;49.962;9.768;2023-06-10T05:20:48;99596.84;;;19.28;49.62
38780;BME280;29273;49.962;9.768;2023-06-10T05:23:14;99593.38;;;19.32;49.47
38780;BME280;29273;49.962;9.768;2023-06-10T05:25:40;99594.44;;;19.36;49.23
38780;BME280;29273;49.962;9.768;2023-06-10T05:28:07;99592.88;;;19.40;49.15
38780;BME280;29273;49.962;9.768;2023-06-10T05:30:35;99592.06;;;19.45;49.17
38780;BME280;29273;49.962;9.768;2023-06-10T05:33:03;99598.50;;;19.49;48.60
38780;BME280;29273;49.962;9.768;2023-06-10T05:35:29;99594.50;;;19.52;49.46
38780;BME280;29273;49.962;9.768;2023-06-10T05:37:54;99591.25;;;19.55;49.42
38780;BME280;29273;49.962;9.768;2023-06-10T05:40:20;99588.88;;;19.58;49.40
38780;BME280;29273;49.962;9.768;2023-06-10T05:42:45;99594.50;;;19.62;49.11
38780;BME280;29273;49.962;9.768;2023-06-10T05:45:11;99593.69;;;19.67;49.51
38780;BME280;29273;49.962;9.768;2023-06-10T05:47:36;99591.84;;;19.72;49.68
38780;BME280;29273;49.962;9.768;2023-06-10T05:50:02;99582.19;;;19.76;49.55
38780;BME280;29273;49.962;9.768;2023-06-10T05:52:28;99590.25;;;19.82;49.55
38780;BME280;29273;49.962;9.768;2023-06-10T05:54:53;99602.88;;;19.86;49.88
38780;BME280;29273;49.962;9.768;2023-06-10T05:57:19;99600.19;;;19.91;49.77
38780;BME280;29273;49.962;9.768;2023-06-10T05:59:45;99592.41;;;19.95;49.65
38780;BME280;29273;49.962;9.768;2023-06-10T06:02:10;99598.59;;;20.01;49.84
38780;BME280;29273;49.962;9.768;2023-06-10T06:04:36;99593.22;;;20.06;49.74
38780;BME280;29273;49.962;9.768;2023-06-10T06:07:01;99584.34;;;20.10;49.35
38780;BME280;29273;49.962;9.768;2023-06-10T06:09:27;99584.06;;;20.17;48.90
38780;BME280;29273;49.962;9.768;2023-06-10T06:11:52;99580.28;;;20.23;49.35
38780;BME280;29273;49.962;9.768;2023-06-10T06:14:18;99587.28;;;20.29;48.45
38780;BME280;29273;49.962;9.768;2023-06-10T06:16:43;99588.09;;;20.35;48.61
38780;BME280;29273;49.962;9.768;2023-06-10T06:19:09;99594.78;;;20.43;48.70
38780;BME280;29273;49.962;9.768;2023-06-10T06:21:36;99592.59;;;20.50;48.60
38780;BME280;29273;49.962;9.768;2023-06-10T06:24:02;99591.25;;;20.58;47.61
38780;BME280;29273;49.962;9.768;2023-06-10T06:26:27;99604.44;;;20.64;48.02
38780;BME280;29273;49.962;9.768;2023-06-10T06:28:53;99595.28;;;20.70;47.84
38780;BME280;29273;49.962;9.768;2023-06-10T06:31:18;99604.97;;;20.77;48.00
38780;BME280;29273;49.962;9.768;2023-06-10T06:33:43;99605.47;;;20.84;47.72
38780;BME280;29273;49.962;9.768;2023-06-10T06:36:09;99610.56;;;20.91;47.59
38780;BME280;29273;49.962;9.768;2023-06-10T06:38:34;99606.78;;;20.97;47.22
38780;BME280;29273;49.962;9.768;2023-06-10T06:41:00;99601.63;;;21.00;47.26
38780;BME280;29273;49.962;9.768;2023-06-10T06:43:31;99603.50;;;21.10;47.16
38780;BME280;29273;49.962;9.768;2023-06-10T06:46:09;99600.50;;;21.17;47.22
38780;BME280;29273;49.962;9.768;2023-06-10T06:48:34;99608.00;;;21.25;47.88
38780;BME280;29273;49.962;9.768;2023-06-10T06:51:00;99596.91;;;21.32;48.08
38780;BME280;29273;49.962;9.768;2023-06-10T06:53:25;99606.28;;;21.39;46.55
38780;BME280;29273;49.962;9.768;2023-06-10T06:55:51;99604.94;;;21.47;46.67
38780;BME280;29273;49.962;9.768;2023-06-10T06:58:16;99607.31;;;21.54;45.83
38780;BME280;29273;49.962;9.768;2023-06-10T07:00:42;99604.31;;;21.60;46.32
38780;BME280;29273;49.962;9.768;2023-06-10T07:03:07;99605.88;;;21.67;45.94
38780;BME280;29273;49.962;9.768;2023-06-10T07:05:33;99602.56;;;21.75;45.86
38780;BME280;29273;49.962;9.768;2023-06-10T07:07:58;99606.56;;;21.83;46.12
38780;BME280;29273;49.962;9.768;2023-06-10T07:10:25;99601.38;;;21.91;46.13
38780;BME280;29273;49.962;9.768;2023-06-10T07:12:51;99604.56;;;21.98;45.66
38780;BME280;29273;49.962;9.768;2023-06-10T07:15:17;99606.13;;;22.05;45.44
38780;BME280;29273;49.962;9.768;2023-06-10T07:17:43;99601.72;;;22.14;45.31
38780;BME280;29273;49.962;9.768;2023-06-10T07:20:10;99610.00;;;22.23;45.39
38780;BME280;29273;49.962;9.768;2023-06-10T07:22:35;99606.47;;;22.27;45.17
38780;BME280;29273;49.962;9.768;2023-06-10T07:25:01;99603.47;;;22.34;44.95
38780;BME280;29273;49.962;9.768;2023-06-10T07:27:27;99603.94;;;22.41;45.19
38780;BME280;29273;49.962;9.768;2023-06-10T07:29:52;99608.19;;;22.47;45.10
38780;BME280;29273;49.962;9.768;2023-06-10T07:32:19;99607.56;;;22.56;45.43
38780;BME280;29273;49.962;9.768;2023-06-10T07:34:45;99608.31;;;22.61;45.40
38780;BME280;29273;49.962;9.768;2023-06-10T07:37:11;99603.66;;;22.67;44.87
38780;BME280;29273;49.962;9.768;2023-06-10T07:39:36;99609.25;;;22.76;44.91
38780;BME280;29273;49.962;9.768;2023-06-10T07:42:02;99600.28;;;22.80;44.64
38780;BME280;29273;49.962;9.768;2023-06-10T07:44:28;99601.53;;;22.88;44.57
38780;BME280;29273;49.962;9.768;2023-06-10T07:46:54;99592.28;;;22.94;43.66
38780;BME280;29273;49.962;9.768;2023-06-10T07:49:19;99597.84;;;23.03;43.82
38780;BME280;29273;49.962;9.768;2023-06-10T07:51:45;99599.13;;;23.11;43.62
38780;BME280;29273;49.962;9.768;2023-06-10T07:54:10;99596.06;;;23.17;43.46
38780;BME280;29273;49.962;9.768;2023-06-10T07:56:38;99604.59;;;23.24;43.40
38780;BME280;29273;49.962;9.768;2023-06-10T07:59:03;99600.75;;;23.31;42.83
38780;BME280;29273;49.962;9.768;2023-06-10T08:01:29;99597.69;;;23.37;43.18
38780;BME280;29273;49.962;9.768;2023-06-10T08:03:55;99591.91;;;23.44;43.52
38780;BME280;29273;49.962;9.768;2023-06-10T08:06:21;99596.16;;;23.50;43.38
38780;BME280;29273;49.962;9.768;2023-06-10T08:08:46;99592.56;;;23.55;43.01
38780;BME280;29273;49.962;9.768;2023-06-10T08:11:13;99589.19;;;23.63;42.39
38780;BME280;29273;49.962;9.768;2023-06-10T08:13:38;99590.72;;;23.69;42.82
38780;BME280;29273;49.962;9.768;2023-06-10T08:16:05;99586.06;;;23.75;42.39
38780;BME280;29273;49.962;9.768;2023-06-10T08:18:31;99594.09;;;23.80;43.05
38780;BME280;29273;49.962;9.768;2023-06-10T08:20:56;99588.63;;;23.85;42.15
38780;BME280;29273;49.962;9.768;2023-06-10T08:23:22;99591.25;;;23.90;42.01
38780;BME280;29273;49.962;9.768;2023-06-10T08:25:48;99589.75;;;23.98;42.06
38780;BME280;29273;49.962;9.768;2023-06-10T08:28:13;99588.06;;;24.02;42.46
38780;BME280;29273;49.962;9.768;2023-06-10T08:30:39;99582.28;;;24.09;42.07
38780;BME280;29273;49.962;9.768;2023-06-10T08:33:04;99577.56;;;24.14;42.38
38780;BME280;29273;49.962;9.768;2023-06-10T08:35:29;99575.59;;;24.20;41.62
38780;BME280;29273;49.962;9.768;2023-06-10T08:37:55;99584.13;;;24.27;41.49
38780;BME280;29273;49.962;9.768;2023-06-10T08:40:21;99579.94;;;24.35;41.72
38780;BME280;29273;49.962;9.768;2023-06-10T08:43:05;99575.91;;;24.46;42.35
38780;BME280;29273;49.962;9.768;2023-06-10T08:45:32;99577.81;;;24.46;41.54
38780;BME280;29273;49.962;9.768;2023-06-10T08:48:02;99579.03;;;24.53;41.08
38780;BME280;29273;49.962;9.768;2023-06-10T08:50:30;99573.84;;;24.57;41.19
38780;BME280;29273;49.962;9.768;2023-06-10T08:52:57;99581.28;;;24.65;41.49
38780;BME280;29273;49.962;9.768;2023-06-10T08:55:32;99576.44;;;24.76;41.48
38780;BME280;29273;49.962;9.768;2023-06-10T08:58:02;99568.50;;;24.80;41.42
38780;BME280;29273;49.962;9.768;2023-06-10T09:00:28;99570.63;;;24.83;40.57
38780;BME280;29273;49.962;9.768;2023-06-10T09:02:55;99565.91;;;24.88;39.92
38780;BME280;29273;49.962;9.768;2023-06-10T09:05:21;99563.88;;;24.94;39.38
38780;BME280;29273;49.962;9.768;2023-06-10T09:07:48;99563.16;;;25.02;40.18
38780;BME280;29273;49.962;9.768;2023-06-10T09:10:13;99566.56;;;25.08;39.62
38780;BME280;29273;49.962;9.768;2023-06-10T09:12:39;99573.47;;;25.14;39.87
38780;BME280;29273;49.962;9.768;2023-06-10T09:15:05;99559.50;;;25.21;39.90
38780;BME280;29273;49.962;9.768;2023-06-10T09:17:31;99561.84;;;25.27;40.25
38780;BME280;29273;49.962;9.768;2023-06-10T09:19:57;99562.03;;;25.31;39.80
38780;BME280;29273;49.962;9.768;2023-06-10T09:22:23;99559.19;;;25.36;39.06
38780;BME280;29273;49.962;9.768;2023-06-10T09:24:49;99557.97;;;25.42;39.54
38780;BME280;29273;49.962;9.768;2023-06-10T09:27:15;99556.28;;;25.46;39.43
38780;BME280;29273;49.962;9.768;2023-06-10T09:29:54;99552.19;;;25.58;40.40
38780;BME280;29273;49.962;9.768;2023-06-10T09:32:20;99557.91;;;25.56;39.43
38780;BME280;29273;49.962;9.768;2023-06-10T09:34:47;99550.16;;;25.63;38.36
38780;BME280;29273;49.962;9.768;2023-06-10T09:37:14;99555.16;;;25.70;38.10
38780;BME280;29273;49.962;9.768;2023-06-10T09:39:44;99549.59;;;25.75;38.55
38780;BME280;29273;49.962;9.768;2023-06-10T09:42:16;99547.94;;;25.88;39.19
38780;BME280;29273;49.962;9.768;2023-06-10T09:44:49;99555.63;;;25.95;39.50
38780;BME280;29273;49.962;9.768;2023-06-10T09:47:19;99558.34;;;25.72;40.24
38780;BME280;29273;49.962;9.768;2023-06-10T09:49:45;99545.88;;;25.94;37.65
38780;BME280;29273;49.962;9.768;2023-06-10T09:52:10;99551.69;;;26.01;37.58
38780;BME280;29273;49.962;9.768;2023-06-10T09:54:36;99551.56;;;26.06;37.36
38780;BME280;29273;49.962;9.768;2023-06-10T09:57:07;99544.44;;;26.19;38.88
38780;BME280;29273;49.962;9.768;2023-06-10T09:59:32;99542.34;;;26.16;37.51
38780;BME280;29273;49.962;9.768;2023-06-10T10:02:00;99546.22;;;26.24;37.33
38780;BME280;29273;49.962;9.768;2023-06-10T10:04:26;99554.72;;;26.31;37.46
38780;BME280;29273;49.962;9.768;2023-06-10T10:06:52;99536.69;;;26.35;37.25
38780;BME280;29273;49.962;9.768;2023-06-10T10:09:17;99540.69;;;26.37;37.18
38780;BME280;29273;49.962;9.768;2023-06-10T10:11:44;99541.06;;;26.45;37.31
38780;BME280;29273;49.962;9.768;2023-06-10T10:14:10;99530.84;;;26.50;36.43
38780;BME280;29273;49.962;9.768;2023-06-10T10:16:37;99532.28;;;26.56;37.20
38780;BME280;29273;49.962;9.768;2023-06-10T10:19:18;99534.75;;;26.67;37.70
38780;BME280;29273;49.962;9.768;2023-06-10T10:22:04;99519.88;;;26.73;38.11
38780;BME280;29273;49.962;9.768;2023-06-10T10:24:34;99532.22;;;26.79;37.23
38780;BME280;29273;49.962;9.768;2023-06-10T10:27:06;99520.41;;;26.84;37.24
38780;BME280;29273;49.962;9.768;2023-06-10T10:29:38;99513.53;;;26.86;36.94
38780;BME280;29273;49.962;9.768;2023-06-10T10:32:08;99520.06;;;26.85;36.98
38780;BME280;29273;49.962;9.768;2023-06-10T10:34:43;99525.03;;;26.92;37.14
38780;BME280;29273;49.962;9.768;2023-06-10T10:37:13;99516.41;;;26.90;35.32
38780;BME280;29273;49.962;9.768;2023-06-10T10:39:39;99509.38;;;26.98;35.22
38780;BME280;29273;49.962;9.768;2023-06-10T10:42:05;99508.09;;;27.04;34.99
38780;BME280;29273;49.962;9.768;2023-06-10T10:44:35;99504.44;;;27.08;34.90
38780;BME280;29273;49.962;9.768;2023-06-10T10:47:02;99506.84;;;27.19;35.92
38780;BME280;29273;49.962;9.768;2023-06-10T10:49:30;99509.84;;;27.26;35.80
38780;BME280;29273;49.962;9.768;2023-06-10T10:51:59;99509.75;;;27.40;36.26
38780;BME280;29273;49.962;9.768;2023-06-10T10:54:35;99495.81;;;27.50;35.92
38780;BME280;29273;49.962;9.768;2023-06-10T10:59:52;99493.03;;;27.67;36.33
38780;BME280;29273;49.962;9.768;2023-06-10T11:02:37;99497.34;;;27.77;36.23
38780;BME280;29273;49.962;9.768;2023-06-10T11:05:10;99495.06;;;27.88;35.19
38780;BME280;29273;49.962;9.768;2023-06-10T11:07:35;99492.81;;;27.90;34.11
38780;BME280;29273;49.962;9.768;2023-06-10T11:15:18;99469.22;;;28.12;33.34
38780;BME280;29273;49.962;9.768;2023-06-10T11:18:09;99472.88;;;28.24;35.85
38780;BME280;29273;49.962;9.768;2023-06-10T11:20:51;99479.69;;;28.31;34.51
38780;BME280;29273;49.962;9.768;2023-06-10T11:26:15;99469.69;;;28.43;33.80
38780;BME280;29273;49.962;9.768;2023-06-10T11:31:19;99473.03;;;28.58;33.70
38780;BME280;29273;49.962;9.768;2023-06-10T11:33:47;99481.53;;;28.56;32.49
38780;BME280;29273;49.962;9.768;2023-06-10T11:36:12;99472.19;;;28.57;31.10
38780;BME280;29273;49.962;9.768;2023-06-10T11:38:38;99472.81;;;28.63;31.66
38780;BME280;29273;49.962;9.768;2023-06-10T11:41:04;99473.28;;;28.65;31.51
38780;BME280;29273;49.962;9.768;2023-06-10T11:43:30;99473.53;;;28.72;30.63
38780;BME280;29273;49.962;9.768;2023-06-10T11:45:56;99474.16;;;28.78;30.96
38780;BME280;29273;49.962;9.768;2023-06-10T11:48:22;99469.44;;;28.87;30.29
38780;BME280;29273;49.962;9.768;2023-06-10T11:50:47;99475.16;;;28.94;30.05
38780;BME280;29273;49.962;9.768;2023-06-10T11:53:13;99467.69;;;29.04;30.87
38780;BME280;29273;49.962;9.768;2023-06-10T11:55:47;99479.63;;;29.20;32.01
38780;BME280;29273;49.962;9.768;2023-06-10T11:58:18;99480.69;;;29.28;31.93
38780;BME280;29273;49.962;9.768;2023-06-10T12:00:52;99479.78;;;29.36;32.12
38780;BME280;29273;49.962;9.768;2023-06-10T12:03:19;99482.03;;;29.34;29.91
38780;BME280;29273;49.962;9.768;2023-06-10T12:06:02;99485.03;;;29.41;31.91
38780;BME280;29273;49.962;9.768;2023-06-10T12:08:27;99482.88;;;29.34;29.17
38780;BME280;29273;49.962;9.768;2023-06-10T12:10:54;99480.94;;;29.35;29.17
38780;BME280;29273;49.962;9.768;2023-06-10T12:13:19;99474.53;;;29.31;29.59
38780;BME280;29273;49.962;9.768;2023-06-10T12:15:46;99476.81;;;29.29;29.88
38780;BME280;29273;49.962;9.768;2023-06-10T12:18:23;99459.91;;;29.36;31.15
38780;BME280;29273;49.962;9.768;2023-06-10T12:20:50;99471.47;;;29.32;30.74
38780;BME280;29273;49.962;9.768;2023-06-10T12:23:17;99471.94;;;29.34;29.95
38780;BME280;29273;49.962;9.768;2023-06-10T12:25:53;99467.19;;;29.44;31.19
38780;BME280;29273;49.962;9.768;2023-06-10T12:28:23;99463.78;;;29.47;30.26
38780;BME280;29273;49.962;9.768;2023-06-10T12:30:49;99461.41;;;29.45;28.74
38780;BME280;29273;49.962;9.768;2023-06-10T12:33:19;99465.31;;;29.57;30.20
38780;BME280;29273;49.962;9.768;2023-06-10T12:35:49;99457.69;;;29.62;30.20
38780;BME280;29273;49.962;9.768;2023-06-10T12:38:21;99457.94;;;29.69;30.41
38780;BME280;29273;49.962;9.768;2023-06-10T12:40:47;99454.75;;;29.67;29.19
38780;BME280;29273;49.962;9.768;2023-06-10T12:43:13;99463.84;;;29.71;28.43
38780;BME280;29273;49.962;9.768;2023-06-10T12:45:40;99456.03;;;29.82;28.99
38780;BME280;29273;49.962;9.768;2023-06-10T12:48:22;99460.38;;;29.96;30.18
38780;BME280;29273;49.962;9.768;2023-06-10T12:50:55;99446.97;;;30.03;29.52
38780;BME280;29273;49.962;9.768;2023-06-10T12:53:22;99447.53;;;30.08;27.79
38780;BME280;29273;49.962;9.768;2023-06-10T12:55:48;99443.22;;;30.20;27.54
38780;BME280;29273;49.962;9.768;2023-06-10T12:58:14;99432.59;;;30.31;27.91
38780;BME280;29273;49.962;9.768;2023-06-10T13:00:40;99438.00;;;30.39;27.19
38780;BME280;29273;49.962;9.768;2023-06-10T13:03:07;99436.84;;;30.53;28.32
38780;BME280;29273;49.962;9.768;2023-06-10T13:05:34;99434.75;;;30.62;27.48
38780;BME280;29273;49.962;9.768;2023-06-10T13:08:02;99430.72;;;30.72;27.68
38780;BME280;29273;49.962;9.768;2023-06-10T13:10:27;99438.78;;;30.80;26.39
38780;BME280;29273;49.962;9.768;2023-06-10T13:12:52;99430.81;;;30.88;27.06
38780;BME280;29273;49.962;9.768;2023-06-10T13:15:20;99429.53;;;30.97;26.75